createdAt,value
2023-04-19T00:00:39.846Z,98882.50
2023-04-19T00:03:41.466Z,98880.81
2023-04-19T00:06:43.052Z,98878.25
2023-04-19T00:09:44.602Z,98875.66
2023-04-19T00:12:46.226Z,98873.94
2023-04-19T00:15:47.913Z,98879.19
2023-04-19T00:18:49.462Z,98879.16
2023-04-19T00:21:51.022Z,98874.81
2023-04-19T00:24:53.158Z,98867.81
2023-04-19T00:27:54.666Z,98867.81
2023-04-19T00:30:56.330Z,98865.19
2023-04-19T00:33:57.876Z,98860.00
2023-04-19T00:36:59.420Z,98860.13
2023-04-19T00:40:01.131Z,98867.06
2023-04-19T00:43:02.816Z,98865.34
2023-04-19T00:46:04.368Z,98862.63
2023-04-19T00:49:06.220Z,98864.47
2023-04-19T00:52:08.393Z,98861.72
2023-04-19T00:55:10.109Z,98851.34
2023-04-19T00:58:11.642Z,98851.34
2023-04-19T01:01:13.228Z,98846.16
2023-04-19T01:04:15.886Z,98846.94
2023-04-19T01:07:18.071Z,98847.00
2023-04-19T01:10:19.582Z,98846.19
2023-04-19T01:13:21.085Z,98840.13
2023-04-19T01:16:24.976Z,98841.00
2023-04-19T01:19:26.845Z,98838.41
2023-04-19T01:22:30.076Z,98835.75
2023-04-19T01:25:31.604Z,98833.13
2023-04-19T01:28:33.234Z,98838.38
2023-04-19T01:31:34.849Z,98836.53
2023-04-19T01:34:36.444Z,98827.84
2023-04-19T01:37:38.049Z,98818.34
2023-04-19T01:40:39.646Z,98820.91
2023-04-19T01:43:41.123Z,98813.91
2023-04-19T01:46:42.862Z,98807.88
2023-04-19T01:49:44.510Z,98801.78
2023-04-19T01:52:46.089Z,98795.72
2023-04-19T01:55:47.623Z,98802.69
2023-04-19T01:58:49.149Z,98796.38
2023-04-19T02:01:50.914Z,98791.34
2023-04-19T02:04:52.452Z,98789.66
2023-04-19T02:07:53.961Z,98781.84
2023-04-19T02:10:55.453Z,98789.69
2023-04-19T02:13:57.089Z,98796.59
2023-04-19T02:16:58.720Z,98788.78
2023-04-19T02:20:00.341Z,98786.22
2023-04-19T02:23:01.917Z,98788.88
2023-04-19T02:26:03.484Z,98782.69
2023-04-19T02:29:06.729Z,98780.19
2023-04-19T02:32:08.674Z,98782.78
2023-04-19T02:35:10.237Z,98775.00
2023-04-19T02:38:11.787Z,98778.38
2023-04-19T02:41:13.357Z,98780.13
2023-04-19T02:44:15.045Z,98774.88
2023-04-19T02:47:16.895Z,98773.13
2023-04-19T02:50:18.452Z,98768.81
2023-04-19T02:53:19.956Z,98774.03
2023-04-19T02:56:21.479Z,98769.69
2023-04-19T02:59:23.046Z,98775.78
2023-04-19T03:02:25.492Z,98774.03
2023-04-19T03:05:27.153Z,98774.03
2023-04-19T03:08:28.808Z,98776.66
2023-04-19T03:11:30.384Z,98778.44
2023-04-19T03:14:33.841Z,98780.16
2023-04-19T03:17:35.977Z,98772.28
2023-04-19T03:20:37.558Z,98773.13
2023-04-19T03:23:39.102Z,98770.59
2023-04-19T03:26:40.747Z,98769.78
2023-04-19T03:29:42.338Z,98766.28
2023-04-19T03:32:44.054Z,98769.75
2023-04-19T03:35:46.029Z,98774.97
2023-04-19T03:38:47.522Z,98761.84
2023-04-19T03:41:49.062Z,98761.00
2023-04-19T03:44:50.609Z,98751.47
2023-04-19T03:47:52.192Z,98752.41
2023-04-19T03:50:53.727Z,98750.66
2023-04-19T03:53:55.235Z,98751.53
2023-04-19T03:56:57.138Z,98750.66
2023-04-19T03:59:58.718Z,98747.16
2023-04-19T04:03:00.417Z,98753.25
2023-04-19T04:06:02.398Z,98742.75
2023-04-19T04:09:06.116Z,98743.69
2023-04-19T04:12:07.739Z,98743.63
2023-04-19T04:15:10.185Z,98741.03
2023-04-19T04:18:11.776Z,98750.56
2023-04-19T04:21:13.453Z,98757.53
2023-04-19T04:24:15.740Z,98748.84
2023-04-19T04:27:21.228Z,98755.75
2023-04-19T04:30:23.270Z,98763.59
2023-04-19T04:33:27.585Z,98754.03
2023-04-19T04:36:29.776Z,98759.25
2023-04-19T04:39:31.390Z,98752.28
2023-04-19T04:42:33.521Z,98754.91
2023-04-19T04:45:35.547Z,98760.09
2023-04-19T04:48:37.066Z,98759.25
2023-04-19T04:51:38.584Z,98758.34
2023-04-19T04:54:40.480Z,98765.28
2023-04-19T04:57:42.050Z,98757.44
2023-04-19T05:00:43.739Z,98762.69
2023-04-19T05:03:45.735Z,98754.88
2023-04-19T05:06:47.291Z,98760.09
2023-04-19T05:09:48.845Z,98763.53
2023-04-19T05:12:50.366Z,98764.41
2023-04-19T05:15:51.953Z,98758.28
2023-04-19T05:18:53.518Z,98760.00
2023-04-19T05:21:55.079Z,98758.41
2023-04-19T05:24:56.665Z,98762.75
2023-04-19T05:27:58.188Z,98768.00
2023-04-19T05:30:59.719Z,98766.28
2023-04-19T05:34:01.348Z,98771.50
2023-04-19T05:37:03.427Z,98775.00
2023-04-19T05:40:05.987Z,98776.72
2023-04-19T05:43:07.517Z,98787.19
2023-04-19T05:46:09.089Z,98776.59
2023-04-19T05:49:10.648Z,98786.31
2023-04-19T05:52:12.210Z,98784.63
2023-04-19T05:55:13.894Z,98784.59
2023-04-19T05:58:15.720Z,98792.44
2023-04-19T06:01:17.247Z,98796.84
2023-04-19T06:04:19.264Z,98801.16
2023-04-19T06:07:31.026Z,98799.41
2023-04-19T06:10:48.784Z,98793.31
2023-04-19T06:13:55.894Z,98796.00
2023-04-19T06:16:57.445Z,98803.81
2023-04-19T06:19:59.147Z,98800.28
2023-04-19T06:23:00.739Z,98803.81
2023-04-19T06:26:02.285Z,98799.44
2023-04-19T06:29:04.331Z,98806.47
2023-04-19T06:32:06.086Z,98810.84
2023-04-19T06:35:08.261Z,98809.13
2023-04-19T06:38:09.941Z,98831.75
2023-04-19T06:41:11.593Z,98832.66
2023-04-19T06:44:13.439Z,98837.00
2023-04-19T06:47:15.196Z,98843.94
2023-04-19T06:50:16.895Z,98850.03
2023-04-19T06:53:18.425Z,98859.63
2023-04-19T06:56:24.357Z,98863.09
2023-04-19T06:59:28.280Z,98871.81
2023-04-19T07:02:30.042Z,98872.66
2023-04-19T07:05:31.782Z,98885.75
2023-04-19T07:08:46.425Z,98894.44
2023-04-19T07:11:51.429Z,98898.81
2023-04-19T07:14:56.416Z,98890.97
2023-04-19T07:17:58.093Z,98900.56
2023-04-19T07:20:59.654Z,98897.94
2023-04-19T07:24:01.233Z,98895.31
2023-04-19T07:27:02.877Z,98893.56
2023-04-19T07:30:04.720Z,98898.81
2023-04-19T07:33:08.579Z,98892.72
2023-04-19T07:36:10.546Z,98901.41
2023-04-19T07:39:13.312Z,98897.94
2023-04-19T07:42:14.853Z,98897.06
2023-04-19T07:45:16.821Z,98903.16
2023-04-19T07:48:20.969Z,98908.41
2023-04-19T07:51:24.903Z,98907.53
2023-04-19T07:54:26.459Z,98904.91
2023-04-19T07:57:27.976Z,98899.66
2023-04-19T08:00:35.664Z,98903.19
2023-04-19T08:03:37.863Z,98906.56
2023-04-19T08:06:39.944Z,98903.88
2023-04-19T08:09:41.659Z,98903.97
2023-04-19T08:12:50.731Z,98907.41
2023-04-19T08:16:41.460Z,98916.16
2023-04-19T08:19:26.516Z,98903.91
2023-04-19T08:22:28.172Z,98910.94
2023-04-19T08:25:29.956Z,98904.88
2023-04-19T08:28:31.491Z,98905.78
2023-04-19T08:31:33.016Z,98904.81
2023-04-19T08:34:38.270Z,98915.25
2023-04-19T08:37:39.844Z,98905.63
2023-04-19T08:40:55.201Z,98910.00
2023-04-19T08:43:57.114Z,98914.13
2023-04-19T08:47:01.837Z,98908.91
2023-04-19T08:50:17.547Z,98911.53
2023-04-19T08:53:29.076Z,98908.75
2023-04-19T08:56:35.437Z,98911.19
2023-04-19T08:59:37.369Z,98916.09
2023-04-19T09:02:52.083Z,98912.41
2023-04-19T09:05:54.624Z,98917.94
2023-04-19T09:12:27.134Z,98908.44
2023-04-19T09:15:45.538Z,98905.06
2023-04-19T09:19:02.519Z,98904.06
2023-04-19T09:22:13.638Z,98911.84
2023-04-19T09:25:41.918Z,98898.28
2023-04-19T09:28:56.969Z,98897.66
2023-04-19T09:32:01.323Z,98896.97
2023-04-19T09:35:02.933Z,98888.53
2023-04-19T09:38:06.948Z,98890.44
2023-04-19T09:41:08.980Z,98892.34
2023-04-19T09:44:44.540Z,98887.75
2023-04-19T09:47:35.161Z,98879.84
2023-04-19T09:50:46.749Z,98868.16
2023-04-19T09:53:55.509Z,98877.88
2023-04-19T09:56:58.383Z,98879.72
2023-04-19T10:00:01.454Z,98862.50
2023-04-19T10:03:03.018Z,98861.44
2023-04-19T10:06:10.671Z,98860.00
2023-04-19T10:09:18.397Z,98863.19
2023-04-19T10:12:45.564Z,98852.56
2023-04-19T10:15:49.947Z,98850.63
2023-04-19T10:18:55.293Z,98846.13
2023-04-19T10:21:56.924Z,98835.47
2023-04-19T10:25:11.349Z,98840.47
2023-04-19T10:28:12.924Z,98836.25
2023-04-19T10:31:14.522Z,98829.47
2023-04-19T10:34:17.740Z,98831.47
2023-04-19T10:37:21.987Z,98831.72
2023-04-19T10:40:51.867Z,98824.63
2023-04-19T10:43:59.195Z,98823.19
2023-04-19T10:47:00.734Z,98810.38
2023-04-19T10:50:04.838Z,98805.03
2023-04-19T10:53:45.506Z,98806.78
2023-04-19T10:57:06.174Z,98809.22
2023-04-19T11:00:25.733Z,98791.66
2023-04-19T11:03:45.641Z,98792.66
2023-04-19T11:06:53.601Z,98791.50
2023-04-19T11:09:55.337Z,98788.13
2023-04-19T11:12:56.948Z,98784.09
2023-04-19T11:16:04.525Z,98782.16
2023-04-19T11:19:06.053Z,98778.06
2023-04-19T11:22:07.620Z,98778.03
2023-04-19T11:25:10.589Z,98775.94
2023-04-19T11:28:12.274Z,98771.19
2023-04-19T11:31:13.848Z,98767.38
2023-04-19T11:34:16.009Z,98765.66
2023-04-19T11:37:17.761Z,98751.09
2023-04-19T11:40:21.532Z,98746.84
2023-04-19T11:43:23.035Z,98746.94
2023-04-19T11:46:24.703Z,98741.47
2023-04-19T11:49:27.984Z,98734.00
2023-04-19T11:52:29.497Z,98730.22
2023-04-19T11:55:33.206Z,98717.56
2023-04-19T11:58:45.321Z,98722.63
2023-04-19T12:01:46.928Z,98720.13
2023-04-19T12:04:48.773Z,98720.63
2023-04-19T12:08:06.644Z,98723.34
2023-04-19T12:11:08.210Z,98712.56
2023-04-19T12:14:16.976Z,98706.88
2023-04-19T12:17:21.585Z,98700.59
2023-04-19T12:20:30.303Z,98701.09
2023-04-19T12:23:31.932Z,98697.53
2023-04-19T12:26:34.623Z,98699.78
2023-04-19T12:29:36.326Z,98698.19
2023-04-19T12:32:37.891Z,98699.19
2023-04-19T12:35:39.843Z,98687.66
2023-04-19T12:38:41.579Z,98698.25
2023-04-19T12:41:43.112Z,98686.81
2023-04-19T12:44:44.649Z,98682.09
2023-04-19T12:47:47.348Z,98687.38
2023-04-19T12:50:48.964Z,98682.66
2023-04-19T12:53:51.258Z,98673.69
2023-04-19T12:56:52.850Z,98673.56
2023-04-19T12:59:54.393Z,98673.59
2023-04-19T13:02:56.273Z,98670.31
2023-04-19T13:05:57.949Z,98662.84
2023-04-19T13:09:01.037Z,98667.38
2023-04-19T13:12:03.958Z,98664.59
2023-04-19T13:15:06.036Z,98644.03
2023-04-19T13:18:07.483Z,98650.28
2023-04-19T13:21:09.065Z,98640.56
2023-04-19T13:24:10.658Z,98644.09
2023-04-19T13:27:12.303Z,98643.94
2023-04-19T13:30:14.358Z,98636.63
2023-04-19T13:33:16.033Z,98636.81
2023-04-19T13:36:17.964Z,98635.13
2023-04-19T13:39:19.531Z,98636.63
2023-04-19T13:42:21.079Z,98640.44
2023-04-19T13:45:22.702Z,98628.72
2023-04-19T13:48:27.152Z,98636.75
2023-04-19T13:51:38.806Z,98631.59
2023-04-19T13:54:44.291Z,98627.34
2023-04-19T13:57:45.851Z,98628.06
2023-04-19T14:00:48.398Z,98627.22
2023-04-19T14:03:50.135Z,98627.22
2023-04-19T14:06:51.805Z,98627.16
2023-04-19T14:09:53.471Z,98614.25
2023-04-19T14:12:55.270Z,98610.00
2023-04-19T14:15:56.885Z,98608.28
2023-04-19T14:18:58.584Z,98618.81
2023-04-19T14:22:00.307Z,98611.09
2023-04-19T14:25:02.269Z,98614.56
2023-04-19T14:28:03.996Z,98617.16
2023-04-19T14:31:05.553Z,98615.19
2023-04-19T14:34:07.122Z,98613.41
2023-04-19T14:37:08.952Z,98608.94
2023-04-19T14:40:11.179Z,98606.34
2023-04-19T14:43:14.722Z,98602.06
2023-04-19T14:46:16.271Z,98602.03
2023-04-19T14:49:18.027Z,98602.91
2023-04-19T14:52:19.699Z,98596.06
2023-04-19T14:55:22.690Z,98602.00
2023-04-19T14:58:24.276Z,98598.56
2023-04-19T15:01:25.931Z,98594.22
2023-04-19T15:04:27.643Z,98601.41
2023-04-19T15:07:29.308Z,98588.94
2023-04-19T15:10:31.002Z,98587.97
2023-04-19T15:13:33.904Z,98582.91
2023-04-19T15:16:35.908Z,98596.00
2023-04-19T15:19:38.205Z,98598.50
2023-04-19T15:22:39.833Z,98600.31
2023-04-19T15:25:41.568Z,98589.25
2023-04-19T15:28:43.119Z,98581.31
2023-04-19T15:31:44.820Z,98586.78
2023-04-19T15:34:46.449Z,98589.44
2023-04-19T15:37:48.149Z,98587.66
2023-04-19T15:40:49.821Z,98578.28
2023-04-19T15:43:51.532Z,98580.22
2023-04-19T15:46:53.158Z,98577.63
2023-04-19T15:49:54.736Z,98580.41
2023-04-19T15:52:56.423Z,98583.09
2023-04-19T15:55:58.139Z,98583.19
2023-04-19T15:58:59.822Z,98585.69
2023-04-19T16:02:01.421Z,98581.47
2023-04-19T16:05:03.328Z,98591.97
2023-04-19T16:08:06.446Z,98587.75
2023-04-19T16:11:08.014Z,98596.47
2023-04-19T16:14:09.570Z,98597.44
2023-04-19T16:17:11.122Z,98591.38
2023-04-19T16:20:13.187Z,98588.81
2023-04-19T16:23:17.138Z,98586.22
2023-04-19T16:26:24.378Z,98583.59
2023-04-19T16:29:26.118Z,98577.53
2023-04-19T16:32:27.984Z,98575.75
2023-04-19T16:35:33.679Z,98570.53
2023-04-19T16:38:39.282Z,98567.91
2023-04-19T16:42:01.171Z,98568.78
2023-04-19T16:45:03.143Z,98568.91
2023-04-19T16:48:07.384Z,98556.75
2023-04-19T16:51:09.041Z,98543.66
2023-04-19T16:54:10.722Z,98536.84
2023-04-19T16:57:12.418Z,98524.69
2023-04-19T17:00:14.679Z,98514.09
2023-04-19T17:03:20.076Z,98514.97
2023-04-19T17:06:24.112Z,98516.66
2023-04-19T17:09:25.770Z,98522.69
2023-04-19T17:12:27.321Z,98524.44
2023-04-19T17:15:28.962Z,98537.56
2023-04-19T17:18:30.679Z,98543.78
2023-04-19T17:21:32.411Z,98542.81
2023-04-19T17:24:34.141Z,98535.88
2023-04-19T17:27:35.741Z,98547.13
2023-04-19T17:30:37.359Z,98537.56
2023-04-19T17:33:38.949Z,98541.00
2023-04-19T17:36:42.106Z,98553.22
2023-04-19T17:39:43.710Z,98545.34
2023-04-19T17:42:45.277Z,98550.59
2023-04-19T17:45:46.823Z,98552.25
2023-04-19T17:48:48.447Z,98554.94
2023-04-19T17:51:49.998Z,98559.38
2023-04-19T17:54:51.565Z,98548.91
2023-04-19T17:57:53.274Z,98566.28
2023-04-19T18:00:54.802Z,98555.88
2023-04-19T18:03:56.632Z,98550.72
2023-04-19T18:06:58.377Z,98548.03
2023-04-19T18:09:59.946Z,98547.19
2023-04-19T18:13:01.541Z,98541.09
2023-04-19T18:16:03.478Z,98534.22
2023-04-19T18:19:05.233Z,98538.59
2023-04-19T18:22:06.825Z,98550.78
2023-04-19T18:25:08.903Z,98551.63
2023-04-19T18:28:10.700Z,98547.28
2023-04-19T18:31:12.205Z,98542.91
2023-04-19T18:34:13.926Z,98550.75
2023-04-19T18:37:16.224Z,98560.31
2023-04-19T18:40:18.934Z,98547.25
2023-04-19T18:43:20.561Z,98556.00
2023-04-19T18:46:24.975Z,98556.00
2023-04-19T18:49:26.599Z,98552.53
2023-04-19T18:52:28.157Z,98558.63
2023-04-19T18:55:31.088Z,98550.84
2023-04-19T18:58:32.770Z,98549.13
2023-04-19T19:01:34.388Z,98551.72
2023-04-19T19:07:41.595Z,98557.78
2023-04-19T19:13:47.907Z,98568.22
2023-04-19T19:16:52.585Z,98560.38
2023-04-19T19:19:54.532Z,98566.50
2023-04-19T19:22:56.479Z,98566.50
2023-04-19T19:25:58.068Z,98560.41
2023-04-19T19:29:01.037Z,98556.94
2023-04-19T19:32:04.982Z,98562.13
2023-04-19T19:35:09.655Z,98571.69
2023-04-19T19:38:12.080Z,98568.22
2023-04-19T19:44:18.636Z,98565.63
2023-04-19T19:47:20.253Z,98577.78
2023-04-19T19:50:46.663Z,98576.03
2023-04-19T19:53:45.674Z,98570.81
2023-04-19T19:57:25.190Z,98569.09
2023-04-19T20:00:36.837Z,98572.56
2023-04-19T20:03:37.612Z,98584.72
2023-04-19T20:09:44.135Z,98580.41
2023-04-19T20:12:46.916Z,98572.59
2023-04-19T20:15:48.515Z,98574.31
2023-04-19T20:18:50.113Z,98583.88
2023-04-19T20:21:51.646Z,98585.63
2023-04-19T20:24:53.192Z,98588.22
2023-04-19T20:27:55.047Z,98593.44
2023-04-19T20:30:56.576Z,98598.63
2023-04-19T20:33:58.133Z,98613.38
2023-04-19T20:36:59.638Z,98602.06
2023-04-19T20:40:01.229Z,98590.78
2023-04-19T20:43:03.292Z,98595.06
2023-04-19T20:46:04.937Z,98593.38
2023-04-19T20:49:06.493Z,98596.81
2023-04-19T20:52:10.623Z,98601.16
2023-04-19T20:55:12.231Z,98600.25
2023-04-19T20:58:13.848Z,98600.25
2023-04-19T21:01:17.498Z,98607.19
2023-04-19T21:04:19.256Z,98596.75
2023-04-19T21:07:20.984Z,98598.53
2023-04-19T21:10:22.539Z,98608.00
2023-04-19T21:13:24.047Z,98600.22
2023-04-19T21:16:25.600Z,98601.06
2023-04-19T21:19:27.166Z,98591.53
2023-04-19T21:22:30.089Z,98588.03
2023-04-19T21:25:31.645Z,98588.03
2023-04-19T21:28:36.144Z,98586.25
2023-04-19T21:31:37.725Z,98582.78
2023-04-19T21:34:39.292Z,98585.38
2023-04-19T21:37:40.851Z,98586.25
2023-04-19T21:40:42.708Z,98581.84
2023-04-19T21:43:44.400Z,98580.91
2023-04-19T21:46:46.282Z,98586.16
2023-04-19T21:49:47.962Z,98589.63
2023-04-19T21:52:49.478Z,98588.72
2023-04-19T21:55:51.204Z,98586.09
2023-04-19T21:58:52.832Z,98585.16
2023-04-19T22:01:54.407Z,98582.53
2023-04-19T22:04:55.916Z,98586.06
2023-04-19T22:07:57.853Z,98586.13
2023-04-19T22:11:00.351Z,98578.25
2023-04-19T22:14:05.046Z,98577.47
2023-04-19T22:17:10.074Z,98568.63
2023-04-19T22:20:15.821Z,98570.41
2023-04-19T22:23:17.390Z,98561.69
2023-04-19T22:26:19.577Z,98560.69
2023-04-19T22:29:21.081Z,98559.72
2023-04-19T22:32:22.816Z,98558.00
2023-04-19T22:35:24.517Z,98561.50
2023-04-19T22:38:26.586Z,98552.75
2023-04-19T22:41:28.196Z,98552.41
2023-04-19T22:44:29.772Z,98542.94
2023-04-19T22:47:32.979Z,98539.34
2023-04-19T22:50:34.642Z,98533.94
2023-04-19T22:53:38.680Z,98533.31
2023-04-19T22:56:40.395Z,98526.16
2023-04-19T22:59:44.537Z,98523.44
2023-04-19T23:02:46.199Z,98520.88
2023-04-19T23:05:48.013Z,98530.31
2023-04-19T23:08:50.521Z,98528.22
2023-04-19T23:11:51.907Z,98513.06
2023-04-19T23:14:53.434Z,98510.41
2023-04-19T23:17:55.026Z,98515.63
2023-04-19T23:20:59.477Z,98511.97
2023-04-19T23:24:01.053Z,98507.75
2023-04-19T23:27:03.480Z,98499.69
2023-04-19T23:30:05.821Z,98495.38
2023-04-19T23:33:07.491Z,98490.94
2023-04-19T23:36:09.183Z,98482.22
2023-04-19T23:39:10.813Z,98483.09
2023-04-19T23:42:12.303Z,98479.59
2023-04-19T23:45:13.850Z,98480.25
2023-04-19T23:48:15.580Z,98474.28
2023-04-19T23:51:17.076Z,98465.34
2023-04-19T23:54:21.297Z,98451.94
2023-04-19T23:57:22.851Z,98450.41
